Terminal Aerodrome Forecast
Issued by NWS

Home | Current Version | Previous Version | Text Only | Print | Product List | Glossary On
Versions: 1 2 3 4 5 6 7 8 9 10 11 12 13 14 15 16 17 18 19 20 21
832
FTUS45 KTFX 172042 AAA
TAFHLN
TAF AMD
KHLN 172042Z 1721/1818 VRB03KT P6SM SCT080 BKN150
      TEMPO 1721/1724 5SM HZ
     FM180600 17011KT P6SM SCT070 BKN120=

USA.gov is the U.S. government's official web portal to all federal, state and local government web resources and services.